createdAt,value
2017-02-03T00:00:10.789Z,73.41
2017-02-03T00:01:21.142Z,73.6
2017-02-03T00:02:31.897Z,73.41
2017-02-03T00:03:42.639Z,73.41
2017-02-03T00:04:52.994Z,73.41
2017-02-03T00:06:02.978Z,73.79
2017-02-03T00:07:13.725Z,73.41
2017-02-03T00:08:24.461Z,73.69
2017-02-03T00:09:34.818Z,73.79
2017-02-03T00:10:43.997Z,73.88
2017-02-03T00:11:54.751Z,73.5
2017-02-03T00:13:04.310Z,73.5
2017-02-03T00:14:15.055Z,73.5
2017-02-03T00:15:25.018Z,73.88
2017-02-03T00:16:35.760Z,73.88
2017-02-03T00:17:45.724Z,73.79
2017-02-03T00:18:56.471Z,73.88
2017-02-03T00:20:07.215Z,73.79
2017-02-03T00:21:17.581Z,73.69
2017-02-03T00:22:28.325Z,73.79
2017-02-03T00:23:39.093Z,73.79
2017-02-03T00:24:49.837Z,73.79
2017-02-03T00:26:00.188Z,73.88
2017-02-03T00:27:10.942Z,73.79
2017-02-03T00:28:21.699Z,73.79
2017-02-03T00:29:32.438Z,73.79
2017-02-03T00:30:43.182Z,73.88
2017-02-03T00:31:53.933Z,73.79
2017-02-03T00:33:04.287Z,73.88
2017-02-03T00:34:15.034Z,73.97
2017-02-03T00:35:25.415Z,73.69
2017-02-03T00:36:35.771Z,73.41
2017-02-03T00:37:46.137Z,73.69
2017-02-03T00:38:56.536Z,73.41
2017-02-03T00:40:06.891Z,73.69
2017-02-03T00:41:17.623Z,73.5
2017-02-03T00:42:27.962Z,73.5
2017-02-03T00:43:37.542Z,73.5
2017-02-03T00:44:48.301Z,73.6
2017-02-03T00:45:58.671Z,73.31
2017-02-03T00:47:09.021Z,73.88
2017-02-03T00:48:19.775Z,73.79
2017-02-03T00:49:30.132Z,73.41
2017-02-03T00:50:40.483Z,73.31
2017-02-03T00:51:51.224Z,73.79
2017-02-03T00:53:01.978Z,73.79
2017-02-03T00:54:12.718Z,73.79
2017-02-03T00:55:22.289Z,73.69
2017-02-03T00:56:32.904Z,73.88
2017-02-03T00:57:43.303Z,73.31
2017-02-03T00:58:53.675Z,73.69
2017-02-03T01:00:03.244Z,73.69
2017-02-03T01:01:14.023Z,73.41
2017-02-03T01:02:24.365Z,73.5
2017-02-03T01:03:34.330Z,73.31
2017-02-03T01:04:44.688Z,73.5
2017-02-03T01:05:55.029Z,73.79
2017-02-03T01:07:05.386Z,73.41
2017-02-03T01:08:16.147Z,73.41
2017-02-03T01:09:26.116Z,73.6
2017-02-03T01:10:36.456Z,73.6
2017-02-03T01:11:46.810Z,73.6
2017-02-03T01:12:57.554Z,73.31
2017-02-03T01:14:08.304Z,73.79
2017-02-03T01:15:19.050Z,73.69
2017-02-03T01:16:29.810Z,73.6
2017-02-03T01:17:40.162Z,73.41
2017-02-03T01:18:50.924Z,73.5
2017-02-03T01:20:01.699Z,73.79
2017-02-03T01:21:12.046Z,73.41
2017-02-03T01:22:22.397Z,73.79
2017-02-03T01:23:32.353Z,73.5
2017-02-03T01:24:43.107Z,73.31
2017-02-03T01:25:53.069Z,73.5
2017-02-03T01:27:03.455Z,73.6
2017-02-03T01:28:14.222Z,73.41
2017-02-03T01:29:24.953Z,73.69
2017-02-03T01:30:35.690Z,73.79
2017-02-03T01:31:45.649Z,73.69
2017-02-03T01:32:55.988Z,73.41
2017-02-03T01:34:06.745Z,73.79
2017-02-03T01:35:16.702Z,73.5
2017-02-03T01:36:27.052Z,73.41
2017-02-03T01:37:37.811Z,73.69
2017-02-03T01:38:47.843Z,73.5
2017-02-03T01:39:58.200Z,73.6
2017-02-03T01:41:08.151Z,73.69
2017-02-03T01:42:18.496Z,73.88
2017-02-03T01:43:28.449Z,73.6
2017-02-03T01:44:38.800Z,73.88
2017-02-03T01:45:49.147Z,73.6
2017-02-03T01:46:59.901Z,73.79
2017-02-03T01:48:10.641Z,73.31
2017-02-03T01:49:20.997Z,73.03
2017-02-03T01:50:31.741Z,73.03
2017-02-03T01:51:42.091Z,73.31
2017-02-03T01:52:52.847Z,73.79
2017-02-03T01:54:03.208Z,73.79
2017-02-03T01:55:13.953Z,73.6
2017-02-03T01:56:24.305Z,73.69
2017-02-03T01:57:35.070Z,73.6
2017-02-03T01:58:45.428Z,73.31
2017-02-03T01:59:55.779Z,73.5
2017-02-03T02:01:06.130Z,73.6
2017-02-03T02:02:16.478Z,73.69
2017-02-03T02:03:27.230Z,73.79
2017-02-03T02:04:37.585Z,73.41
2017-02-03T02:05:47.967Z,73.41
2017-02-03T02:06:58.714Z,73.6
2017-02-03T02:08:09.071Z,73.31
2017-02-03T02:09:19.018Z,73.6
2017-02-03T02:10:29.364Z,73.6
2017-02-03T02:11:40.107Z,73.5
2017-02-03T02:12:50.458Z,73.5
2017-02-03T02:14:01.198Z,73.69
2017-02-03T02:15:11.146Z,73.6
2017-02-03T02:16:21.897Z,73.31
2017-02-03T02:17:32.239Z,73.6
2017-02-03T02:18:43.016Z,73.5
2017-02-03T02:19:53.374Z,73.12
2017-02-03T02:21:03.721Z,73.03
2017-02-03T02:22:14.088Z,73.25
2017-02-03T02:23:24.443Z,73.22
2017-02-03T02:24:34.414Z,73.69
2017-02-03T02:25:44.768Z,73.6
2017-02-03T02:26:55.521Z,73.41
2017-02-03T02:28:05.883Z,73.31
2017-02-03T02:29:15.859Z,73.31
2017-02-03T02:30:26.209Z,73.79
2017-02-03T02:31:36.969Z,73.5
2017-02-03T02:32:47.710Z,73.5
2017-02-03T02:33:58.465Z,73.79
2017-02-03T02:35:08.833Z,73.5
2017-02-03T02:36:19.575Z,73.79
2017-02-03T02:37:30.310Z,73.88
2017-02-03T02:38:41.044Z,73.69
2017-02-03T02:39:51.399Z,73.69
2017-02-03T02:41:01.752Z,73.5
2017-02-03T02:42:11.309Z,73.97
2017-02-03T02:43:21.266Z,73.88
2017-02-03T02:44:31.212Z,73.88
2017-02-03T02:45:41.981Z,73.69
2017-02-03T02:46:52.334Z,73.79
2017-02-03T02:48:02.281Z,73.69
2017-02-03T02:49:12.630Z,73.69
2017-02-03T02:50:23.384Z,73.69
2017-02-03T02:51:33.337Z,73.88
2017-02-03T02:52:43.693Z,73.79
2017-02-03T02:53:54.049Z,73.69
2017-02-03T02:55:04.422Z,73.41
2017-02-03T02:56:14.363Z,73.69
2017-02-03T02:57:25.107Z,73.69
2017-02-03T02:58:35.855Z,73.5
2017-02-03T02:59:46.609Z,73.6
2017-02-03T03:00:56.162Z,73.41
2017-02-03T03:33:11.405Z,71.71
2017-02-03T03:34:21.355Z,72.09
2017-02-03T03:35:32.099Z,73.13
2017-02-03T03:36:42.470Z,74.17
2017-02-03T03:37:53.425Z,74.83
2017-02-03T03:39:04.201Z,75.31
2017-02-03T03:40:14.562Z,75.59
2017-02-03T03:41:24.915Z,76.44
2017-02-03T03:42:35.670Z,76
2017-02-03T03:43:46.016Z,76.1
2017-02-03T03:44:56.364Z,76.38
2017-02-03T03:46:06.757Z,76.19
2017-02-03T03:47:17.119Z,76.51
2017-02-03T03:48:27.900Z,76.14
2017-02-03T03:49:38.641Z,75.76
2017-02-03T03:50:48.988Z,75.28
2017-02-03T03:51:58.553Z,75.76
2017-02-03T03:53:08.894Z,75.38
2017-02-03T03:54:19.641Z,75.38
2017-02-03T03:55:29.590Z,74.95
2017-02-03T03:56:39.943Z,74.95
2017-02-03T03:57:50.296Z,75.04
2017-02-03T03:59:00.655Z,74.85
2017-02-03T04:00:11.007Z,74.85
2017-02-03T04:01:21.353Z,74.66
2017-02-03T04:02:32.100Z,74.66
2017-02-03T04:03:42.849Z,74.85
2017-02-03T04:04:53.202Z,74.75
2017-02-03T04:06:03.552Z,74.32
2017-02-03T04:07:13.911Z,74.51
2017-02-03T04:08:23.900Z,74.32
2017-02-03T04:09:34.847Z,74.41
2017-02-03T04:10:45.199Z,74.22
2017-02-03T04:11:55.547Z,74.51
2017-02-03T04:13:05.922Z,74.51
2017-02-03T04:14:16.683Z,74.41
2017-02-03T04:15:26.649Z,73.65
2017-02-03T04:16:37.037Z,73.84
2017-02-03T04:17:47.390Z,73.84
2017-02-03T04:18:57.742Z,73.56
2017-02-03T04:20:08.487Z,73.56
2017-02-03T04:21:19.237Z,73.65
2017-02-03T04:22:29.976Z,73.65
2017-02-03T04:23:40.320Z,73.56
2017-02-03T04:24:50.685Z,73.46
2017-02-03T04:26:01.418Z,73.79
2017-02-03T04:27:10.971Z,73.97
2017-02-03T04:28:21.327Z,73.88
2017-02-03T04:29:31.683Z,73.56
2017-02-03T04:30:41.649Z,73.65
2017-02-03T04:31:52.007Z,73.75
2017-02-03T04:33:02.743Z,73.79
2017-02-03T04:34:13.515Z,73.46
2017-02-03T04:35:24.268Z,73.65
2017-02-03T04:36:34.600Z,73.56
2017-02-03T04:37:44.950Z,73.65
2017-02-03T04:38:55.301Z,73.56
2017-02-03T04:40:06.062Z,73.65
2017-02-03T04:41:16.807Z,73.56
2017-02-03T04:42:27.169Z,73.6
2017-02-03T04:43:37.942Z,73.65
2017-02-03T04:44:48.692Z,73.84
2017-02-03T04:45:59.439Z,73.37
2017-02-03T04:47:10.185Z,73.37
2017-02-03T04:48:20.944Z,73.65
2017-02-03T04:49:31.299Z,73.37
2017-02-03T04:50:42.039Z,73.75
2017-02-03T04:51:52.402Z,73.69
2017-02-03T04:53:02.783Z,73.65
2017-02-03T04:54:13.124Z,73.65
2017-02-03T04:55:23.894Z,73.69
2017-02-03T04:56:34.277Z,73.84
2017-02-03T04:57:43.899Z,73.75
2017-02-03T04:58:54.652Z,73.84
2017-02-03T05:00:05.407Z,73.37
2017-02-03T05:01:16.146Z,73.65
2017-02-03T05:02:26.893Z,73.65
2017-02-03T05:03:37.639Z,73.37
2017-02-03T05:04:48.397Z,73.37
2017-02-03T05:05:58.749Z,73.46
2017-02-03T05:07:09.499Z,73.75
2017-02-03T05:08:19.853Z,73.37
2017-02-03T05:09:29.814Z,73.65
2017-02-03T05:10:39.766Z,73.37
2017-02-03T05:11:50.130Z,73.65
2017-02-03T05:13:00.876Z,73.37
2017-02-03T05:14:11.625Z,73.65
2017-02-03T05:15:21.987Z,73.84
2017-02-03T05:16:32.345Z,73.37
2017-02-03T05:17:43.090Z,73.65
2017-02-03T05:18:53.483Z,73.56
2017-02-03T05:20:03.829Z,73.65
2017-02-03T05:21:14.178Z,73.65
2017-02-03T05:22:24.122Z,73.84
2017-02-03T05:23:34.078Z,73.65
2017-02-03T05:24:44.829Z,73.65
2017-02-03T05:25:54.792Z,73.75
2017-02-03T05:27:05.541Z,73.84
2017-02-03T05:28:15.892Z,73.84
2017-02-03T05:29:26.642Z,73.46
2017-02-03T05:30:36.990Z,73.75
2017-02-03T05:31:47.748Z,73.84
2017-02-03T05:32:58.492Z,73.56
2017-02-03T05:34:08.840Z,73.75
2017-02-03T05:35:18.801Z,73.75
2017-02-03T05:36:28.758Z,73.37
2017-02-03T05:37:39.104Z,73.75
2017-02-03T05:38:49.473Z,73.84
2017-02-03T05:40:00.233Z,73.75
2017-02-03T05:41:10.573Z,73.37
2017-02-03T05:42:21.359Z,73.75
2017-02-03T05:43:31.709Z,73.75
2017-02-03T05:44:42.465Z,73.84
2017-02-03T05:45:52.808Z,73.84
2017-02-03T05:47:02.758Z,73.65
2017-02-03T05:48:13.507Z,73.56
2017-02-03T05:49:24.254Z,73.65
2017-02-03T05:50:35.021Z,73.56
2017-02-03T05:51:44.988Z,73.37
2017-02-03T05:52:55.350Z,73.75
2017-02-03T05:54:06.095Z,73.65
2017-02-03T05:55:16.841Z,73.46
2017-02-03T05:56:27.590Z,73.56
2017-02-03T05:57:38.331Z,73.69
2017-02-03T05:58:49.103Z,73.88
2017-02-03T05:59:59.055Z,73.46
2017-02-03T06:01:09.794Z,73.46
2017-02-03T06:02:20.149Z,73.65
2017-02-03T06:03:30.498Z,73.69
2017-02-03T06:04:41.226Z,73.75
2017-02-03T06:05:51.967Z,73.79
2017-02-03T06:07:02.324Z,73.79
2017-02-03T06:08:13.071Z,73.41
2017-02-03T06:09:23.429Z,73.69
2017-02-03T06:10:33.790Z,73.69
2017-02-03T06:11:44.146Z,73.6
2017-02-03T06:12:54.948Z,73.69
2017-02-03T06:14:05.319Z,73.6
2017-02-03T06:15:15.659Z,73.69
2017-02-03T06:16:26.414Z,73.69
2017-02-03T06:17:37.158Z,73.79
2017-02-03T06:18:47.109Z,73.79
2017-02-03T06:19:57.463Z,73.69
2017-02-03T06:21:08.205Z,73.79
2017-02-03T06:22:18.965Z,73.97
2017-02-03T06:23:29.722Z,73.88
2017-02-03T06:24:40.466Z,73.79
2017-02-03T06:25:51.216Z,73.79
2017-02-03T06:27:01.959Z,73.69
2017-02-03T06:28:11.918Z,73.41
2017-02-03T06:29:22.676Z,73.41
2017-02-03T06:30:33.435Z,73.5
2017-02-03T06:31:44.177Z,73.41
2017-02-03T06:32:54.522Z,73.88
2017-02-03T06:34:04.499Z,73.69
2017-02-03T06:35:14.846Z,73.79
2017-02-03T06:36:25.227Z,73.79
2017-02-03T06:37:35.975Z,73.88
2017-02-03T06:38:46.329Z,73.79
2017-02-03T06:39:56.683Z,73.97
2017-02-03T06:41:06.663Z,73.88
2017-02-03T06:42:17.016Z,73.69
2017-02-03T06:43:27.770Z,73.79
2017-02-03T06:44:38.119Z,73.97
2017-02-03T06:45:48.887Z,73.79
2017-02-03T06:46:59.228Z,73.31
2017-02-03T06:48:09.204Z,73.5
2017-02-03T06:49:19.569Z,73.31
2017-02-03T06:50:30.319Z,73.35
2017-02-03T06:51:40.266Z,73.03
2017-02-03T06:52:50.232Z,73.07
2017-02-03T06:54:00.583Z,73.16
2017-02-03T06:55:10.954Z,73.44
2017-02-03T06:56:20.906Z,73.35
2017-02-03T06:57:31.640Z,73.35
2017-02-03T06:58:41.603Z,73.82
2017-02-03T06:59:52.371Z,73.63
2017-02-03T07:01:02.726Z,73.63
2017-02-03T07:02:13.079Z,73.44
2017-02-03T07:03:23.845Z,73.31
2017-02-03T07:04:34.605Z,73.31
2017-02-03T07:05:44.939Z,73.92
2017-02-03T07:06:55.288Z,73.82
2017-02-03T07:08:06.024Z,73.44
2017-02-03T07:09:16.770Z,73.63
2017-02-03T07:10:27.533Z,73.44
2017-02-03T07:11:38.269Z,73.35
2017-02-03T07:12:49.001Z,73.25
2017-02-03T07:13:59.362Z,72.97
2017-02-03T07:15:10.158Z,73.44
2017-02-03T07:16:19.743Z,73.16
2017-02-03T07:17:29.697Z,73.16
2017-02-03T07:18:40.445Z,73.16
2017-02-03T07:19:51.192Z,73.07
2017-02-03T07:21:01.551Z,73.35
2017-02-03T07:22:11.923Z,73.25
2017-02-03T07:23:22.680Z,73.54
2017-02-03T07:24:32.642Z,73.07
2017-02-03T07:25:43.395Z,73.35
2017-02-03T07:26:54.165Z,73.35
2017-02-03T07:28:04.927Z,72.68
2017-02-03T07:29:15.328Z,72.59
2017-02-03T07:30:25.276Z,72.63
2017-02-03T07:31:35.639Z,72.81
2017-02-03T07:32:46.440Z,73
2017-02-03T07:33:57.196Z,72.91
2017-02-03T07:35:07.153Z,72.91
2017-02-03T07:36:17.129Z,72.63
2017-02-03T07:37:27.877Z,73.1
2017-02-03T07:38:38.625Z,72.53
2017-02-03T07:39:49.375Z,72.53
2017-02-03T07:41:00.126Z,72.56
2017-02-03T07:42:10.899Z,72.47
2017-02-03T07:43:20.860Z,72.47
2017-02-03T07:44:31.597Z,72.38
2017-02-03T07:45:42.350Z,72.19
2017-02-03T07:46:52.705Z,72.66
2017-02-03T07:48:03.066Z,72.95
2017-02-03T07:49:12.642Z,72.56
2017-02-03T07:50:23.386Z,72.66
2017-02-03T07:51:34.152Z,72.19
2017-02-03T07:52:44.506Z,72.66
2017-02-03T07:53:54.454Z,72.85
2017-02-03T07:55:04.826Z,72.95
2017-02-03T07:56:15.192Z,72.85
2017-02-03T07:57:25.970Z,72.47
2017-02-03T07:58:36.330Z,72.56
2017-02-03T07:59:47.077Z,72.19
2017-02-03T08:00:57.823Z,72.79
2017-02-03T08:02:07.830Z,72.79
2017-02-03T08:03:18.583Z,72.89
2017-02-03T08:04:28.934Z,72.22
2017-02-03T08:05:38.904Z,72.7
2017-02-03T08:06:49.264Z,72.13
2017-02-03T08:07:59.604Z,72.7
2017-02-03T08:09:09.963Z,72.7
2017-02-03T08:10:20.323Z,72.03
2017-02-03T08:11:31.070Z,72.13
2017-02-03T08:12:41.416Z,72.35
2017-02-03T08:13:52.171Z,72.41
2017-02-03T08:15:02.534Z,72.45
2017-02-03T08:16:12.494Z,72.35
2017-02-03T08:17:22.866Z,72.45
2017-02-03T08:18:33.609Z,72.45
2017-02-03T08:19:43.569Z,72.35
2017-02-03T08:20:53.917Z,72.55
2017-02-03T08:22:03.888Z,72.45
2017-02-03T08:23:14.644Z,72.35
2017-02-03T08:24:25.429Z,72.67
2017-02-03T08:25:36.210Z,72.67
2017-02-03T08:26:46.962Z,72.49
2017-02-03T08:27:57.756Z,72.2
2017-02-03T08:29:08.516Z,72.11
2017-02-03T08:30:18.869Z,72.83
2017-02-03T08:31:29.640Z,72.58
2017-02-03T08:32:40.027Z,72.77
2017-02-03T08:33:50.825Z,72.86
2017-02-03T08:35:01.177Z,72.58
2017-02-03T08:36:11.528Z,72.26
2017-02-03T08:37:21.481Z,72.55
2017-02-03T08:38:32.248Z,73.02
2017-02-03T08:39:42.997Z,73.21
2017-02-03T08:40:53.424Z,72.74
2017-02-03T08:42:03.786Z,73.02
2017-02-03T08:43:14.533Z,72.74
2017-02-03T08:44:24.890Z,73.02
2017-02-03T08:45:35.252Z,72.55
2017-02-03T08:46:46.016Z,72.58
2017-02-03T08:47:56.363Z,72.77
2017-02-03T08:49:07.103Z,72.11
2017-02-03T08:50:17.510Z,72.86
2017-02-03T08:51:27.085Z,72.77
2017-02-03T08:52:37.440Z,72.96
2017-02-03T08:53:48.195Z,72.58
2017-02-03T08:54:58.941Z,72.86
2017-02-03T08:56:09.697Z,72.55
2017-02-03T08:57:19.662Z,72.77
2017-02-03T08:58:30.007Z,72.58
2017-02-03T08:59:39.978Z,72.86
2017-02-03T09:00:49.949Z,72.86
2017-02-03T09:01:59.915Z,72.96
2017-02-03T09:03:10.102Z,72.77
2017-02-03T09:04:20.473Z,72.58
2017-02-03T09:05:30.828Z,73.25
2017-02-03T09:06:41.593Z,72.39
2017-02-03T09:07:51.947Z,72.77
2017-02-03T09:09:02.305Z,72.74
2017-02-03T09:10:13.050Z,73.3
2017-02-03T09:11:23.796Z,73.4
2017-02-03T09:12:34.539Z,73.02
2017-02-03T09:13:45.277Z,73.21
2017-02-03T09:14:56.029Z,73.21
2017-02-03T09:16:06.397Z,73.02
2017-02-03T09:17:16.746Z,72.96
2017-02-03T09:18:27.106Z,73.11
2017-02-03T09:19:37.065Z,73.15
2017-02-03T09:20:47.818Z,73.06
2017-02-03T09:21:58.558Z,73.02
2017-02-03T09:23:08.922Z,73.06
2017-02-03T09:24:19.677Z,73.15
2017-02-03T09:25:30.113Z,72.83
2017-02-03T09:26:40.487Z,72.83
2017-02-03T09:27:51.233Z,72.92
2017-02-03T09:29:01.601Z,72.83
2017-02-03T09:30:11.586Z,73.02
2017-02-03T09:31:21.948Z,72.92
2017-02-03T09:32:31.903Z,73.3
2017-02-03T09:33:41.867Z,73.4
2017-02-03T09:34:51.467Z,73.21
2017-02-03T09:36:02.254Z,73.49
2017-02-03T09:37:12.650Z,73.49
2017-02-03T09:38:23.397Z,73.4
2017-02-03T09:39:33.377Z,73.49
2017-02-03T09:40:43.333Z,73.3
2017-02-03T09:41:54.088Z,73.4
2017-02-03T09:43:04.461Z,73.4
2017-02-03T09:44:14.814Z,73.69
2017-02-03T09:45:25.554Z,73.4
2017-02-03T09:46:35.902Z,73.4
2017-02-03T09:47:46.683Z,73.4
2017-02-03T09:48:57.048Z,73.4
2017-02-03T09:50:07.812Z,73.4
2017-02-03T09:51:18.168Z,72.64
2017-02-03T09:52:28.755Z,73.02
2017-02-03T09:53:39.119Z,72.55
2017-02-03T09:54:48.690Z,72.64
2017-02-03T09:55:58.659Z,72.64
2017-02-03T09:57:09.455Z,72.83
2017-02-03T09:58:19.818Z,73.02
2017-02-03T09:59:30.167Z,73.15
2017-02-03T10:00:40.114Z,72.39
2017-02-03T10:01:50.505Z,72.39
2017-02-03T10:03:00.885Z,72.2
2017-02-03T10:04:11.263Z,71.91
2017-02-03T10:05:22.003Z,71.91
2017-02-03T10:06:32.353Z,72.01
2017-02-03T10:07:42.753Z,72.01
2017-02-03T10:08:53.494Z,72.11
2017-02-03T10:10:03.844Z,72.39
2017-02-03T10:11:14.615Z,71.63
2017-02-03T10:12:25.372Z,71.28
2017-02-03T10:13:36.123Z,71.67
2017-02-03T10:14:46.879Z,71.95
2017-02-03T10:15:57.644Z,71.76
2017-02-03T10:17:08.405Z,71.76
2017-02-03T10:18:19.150Z,71.76
2017-02-03T10:19:29.911Z,71.57
2017-02-03T10:20:40.684Z,72.14
2017-02-03T10:21:51.041Z,71.67
2017-02-03T10:23:01.781Z,72.24
2017-02-03T10:24:11.752Z,71.86
2017-02-03T10:25:22.114Z,71.67
2017-02-03T10:26:32.870Z,71.67
2017-02-03T10:27:43.233Z,72.24
2017-02-03T10:28:54.029Z,72.42
2017-02-03T10:30:04.376Z,72.42
2017-02-03T10:31:14.379Z,72.52
2017-02-03T10:32:24.734Z,72.42
2017-02-03T10:33:35.492Z,72.33
2017-02-03T10:34:45.887Z,73.1
2017-02-03T10:35:56.689Z,72.33
2017-02-03T10:37:06.668Z,72.24
2017-02-03T10:38:17.049Z,72.17
2017-02-03T10:39:27.411Z,71.98
2017-02-03T10:40:37.779Z,71.98
2017-02-03T10:41:48.137Z,71.98
2017-02-03T10:42:58.895Z,71.89
2017-02-03T10:44:09.267Z,72.08
2017-02-03T10:45:18.825Z,72.08
2017-02-03T10:46:29.617Z,71.7
2017-02-03T10:47:40.372Z,71.8
2017-02-03T10:48:51.119Z,72.08
2017-02-03T10:50:01.479Z,71.8
2017-02-03T10:51:12.245Z,71.98
2017-02-03T10:52:23.004Z,70.75
2017-02-03T10:53:33.762Z,71.07
2017-02-03T10:54:44.514Z,71.26
2017-02-03T10:55:54.884Z,70.78
2017-02-03T10:57:05.683Z,70.97
2017-02-03T10:58:16.448Z,71.51
2017-02-03T10:59:26.795Z,71.89
2017-02-03T11:00:37.157Z,72.27
2017-02-03T11:01:47.503Z,72.17
2017-02-03T11:02:57.470Z,72.17
2017-02-03T11:04:07.058Z,72.08
2017-02-03T11:05:17.433Z,71.7
2017-02-03T11:06:28.206Z,71.89
2017-02-03T11:07:38.571Z,71.22
2017-02-03T11:08:49.344Z,72.02
2017-02-03T11:10:00.098Z,71.45
2017-02-03T11:11:10.886Z,71.89
2017-02-03T11:12:21.240Z,72.27
2017-02-03T11:13:32.025Z,72.27
2017-02-03T11:14:42.379Z,72.46
2017-02-03T11:15:53.126Z,72.37
2017-02-03T11:17:03.481Z,72.85
2017-02-03T11:18:14.247Z,72.81
2017-02-03T11:19:24.639Z,73
2017-02-03T11:20:35.402Z,72.14
2017-02-03T11:21:44.969Z,72.33
2017-02-03T11:22:55.728Z,72.33
2017-02-03T11:24:06.094Z,72.05
2017-02-03T11:25:16.881Z,72.24
2017-02-03T11:26:26.835Z,72.24
2017-02-03T11:27:36.392Z,72.14
2017-02-03T11:28:47.175Z,72.14
2017-02-03T11:29:57.965Z,72.24
2017-02-03T11:31:08.313Z,72.62
2017-02-03T11:32:19.062Z,72.42
2017-02-03T11:33:29.821Z,72.52
2017-02-03T11:34:40.554Z,72.52
2017-02-03T11:35:50.909Z,72.42
2017-02-03T11:37:01.658Z,72.42
2017-02-03T11:38:12.395Z,72.42
2017-02-03T11:39:23.148Z,72.42
2017-02-03T11:40:33.923Z,72.52
2017-02-03T11:41:44.280Z,72.14
2017-02-03T11:42:55.044Z,72.33
2017-02-03T11:44:05.802Z,71.95
2017-02-03T11:45:15.752Z,71.98
2017-02-03T11:46:25.746Z,72.14
2017-02-03T11:47:36.483Z,72.14
2017-02-03T11:48:47.229Z,72.33
2017-02-03T11:49:57.585Z,72.14
2017-02-03T11:51:07.937Z,72.81
2017-02-03T11:52:18.434Z,72.71
2017-02-03T11:53:28.807Z,72.71
2017-02-03T11:54:39.790Z,72.42
2017-02-03T11:55:50.042Z,72.52
2017-02-03T11:57:00.992Z,72.33
2017-02-03T11:58:10.964Z,73.1
2017-02-03T11:59:21.304Z,73
2017-02-03T12:00:31.655Z,72.62
2017-02-03T12:01:41.619Z,72.62
2017-02-03T12:02:52.389Z,72.62
2017-02-03T12:04:03.112Z,72.71
2017-02-03T12:05:13.479Z,72.52
2017-02-03T12:06:22.651Z,72.42
2017-02-03T12:07:32.609Z,72.33
2017-02-03T12:08:43.006Z,72.3
2017-02-03T12:09:53.757Z,72.39
2017-02-03T12:11:03.727Z,72.86
2017-02-03T12:12:14.094Z,72.49
2017-02-03T12:13:24.446Z,73.25
2017-02-03T12:14:35.222Z,72.58
2017-02-03T12:15:45.574Z,72.2
2017-02-03T12:16:56.326Z,72.86
2017-02-03T12:18:07.080Z,72.58
2017-02-03T12:19:17.435Z,72.67
2017-02-03T12:20:28.176Z,72.58
2017-02-03T12:21:38.148Z,72.58
2017-02-03T12:22:48.505Z,72.86
2017-02-03T12:23:58.857Z,72.96
2017-02-03T12:25:09.224Z,72.86
2017-02-03T12:26:19.570Z,72.11
2017-02-03T12:27:30.327Z,72.39
2017-02-03T12:28:41.082Z,72.3
2017-02-03T12:29:51.831Z,72.39
2017-02-03T12:31:02.587Z,72.39
2017-02-03T12:32:13.372Z,72.58
2017-02-03T12:33:23.729Z,72.58
2017-02-03T12:34:34.496Z,72.67
2017-02-03T12:35:45.250Z,72.49
2017-02-03T12:36:56.003Z,72.49
2017-02-03T12:38:06.347Z,72.39
2017-02-03T12:39:17.132Z,72.2
2017-02-03T12:40:27.896Z,72.86
2017-02-03T12:41:38.678Z,73.06
2017-02-03T12:42:49.421Z,72.96
2017-02-03T12:44:00.161Z,72.67
2017-02-03T12:45:10.897Z,72.67
2017-02-03T12:46:21.660Z,73.25
2017-02-03T12:47:32.492Z,72.77
2017-02-03T12:48:42.074Z,72.77
2017-02-03T12:49:52.440Z,72.86
2017-02-03T12:51:03.211Z,72.49
2017-02-03T12:52:13.966Z,72.86
2017-02-03T12:53:23.928Z,72.77
2017-02-03T12:54:34.280Z,72.67
2017-02-03T12:55:45.034Z,73.25
2017-02-03T12:56:55.767Z,73.25
2017-02-03T12:58:06.518Z,72.77
2017-02-03T12:59:16.484Z,72.83
2017-02-03T13:00:26.430Z,72.83
2017-02-03T13:01:37.316Z,73.49
2017-02-03T13:02:47.675Z,72.83
2017-02-03T13:03:58.427Z,72.83
2017-02-03T13:05:09.185Z,72.83
2017-02-03T13:06:19.546Z,72.74
2017-02-03T13:07:29.124Z,73.3
2017-02-03T13:08:39.886Z,73.4
2017-02-03T13:09:50.243Z,73.3
2017-02-03T13:11:01.008Z,73.4
2017-02-03T13:12:11.378Z,73.3
2017-02-03T13:13:22.135Z,73.02
2017-02-03T13:14:32.496Z,73.02
2017-02-03T13:15:42.464Z,72.64
2017-02-03T13:16:52.422Z,72.92
2017-02-03T13:18:03.202Z,73.02
2017-02-03T13:19:13.939Z,73.21
2017-02-03T13:20:24.298Z,73.21
2017-02-03T13:21:34.677Z,72.74
2017-02-03T13:22:45.089Z,72.83
2017-02-03T13:23:55.444Z,72.83
2017-02-03T13:25:05.783Z,72.83
2017-02-03T13:26:16.533Z,73.11
2017-02-03T13:27:27.282Z,73.02
2017-02-03T13:28:38.033Z,72.74
2017-02-03T13:29:48.389Z,72.74
2017-02-03T13:30:58.771Z,72.83
2017-02-03T13:32:09.131Z,72.74
2017-02-03T13:33:19.099Z,73.11
2017-02-03T13:34:29.443Z,73.02
2017-02-03T13:35:39.813Z,73.21
2017-02-03T13:36:50.561Z,73.08
2017-02-03T13:38:01.370Z,72.92
2017-02-03T13:39:12.112Z,72.6
2017-02-03T13:40:22.065Z,72.64
2017-02-03T13:41:32.818Z,72.99
2017-02-03T13:42:43.574Z,73.65
2017-02-03T13:43:53.929Z,73.36
2017-02-03T13:45:04.692Z,73.18
2017-02-03T13:46:15.458Z,73.36
2017-02-03T13:47:25.813Z,73.46
2017-02-03T13:48:36.563Z,73.18
2017-02-03T13:49:46.905Z,73.46
2017-02-03T13:50:57.262Z,73.65
2017-02-03T13:52:07.844Z,73.46
2017-02-03T13:53:18.603Z,73.46
2017-02-03T13:54:29.372Z,73.27
2017-02-03T13:55:39.356Z,73.18
2017-02-03T13:56:49.746Z,73.08
2017-02-03T13:58:00.490Z,73.18
2017-02-03T13:59:11.248Z,73.08
2017-02-03T14:00:22.012Z,73.36
2017-02-03T14:01:32.770Z,73.18
2017-02-03T14:02:43.144Z,73.46
2017-02-03T14:03:53.497Z,73.36
2017-02-03T14:05:03.481Z,73.36
2017-02-03T14:06:13.849Z,73.46
2017-02-03T14:07:24.601Z,73.36
2017-02-03T14:08:35.356Z,73.27
2017-02-03T14:09:46.098Z,73.46
2017-02-03T14:10:56.439Z,73.65
2017-02-03T14:12:06.413Z,73.36
2017-02-03T14:13:17.239Z,73.36
2017-02-03T14:14:28.005Z,73.46
2017-02-03T14:15:38.381Z,73.27
2017-02-03T14:16:48.798Z,73.46
2017-02-03T14:17:59.575Z,73.46
2017-02-03T14:19:10.386Z,73.18
2017-02-03T14:20:21.189Z,73.55
2017-02-03T14:21:32.006Z,72.89
2017-02-03T14:22:42.801Z,72.79
2017-02-03T14:23:53.216Z,72.79
2017-02-03T14:25:04.045Z,72.79
2017-02-03T14:26:14.052Z,73.08
2017-02-03T14:27:24.447Z,72.7
2017-02-03T14:28:34.896Z,72.89
2017-02-03T14:29:45.265Z,72.99
2017-02-03T14:30:55.639Z,73.08
2017-02-03T14:32:06.017Z,72.99
2017-02-03T14:33:16.387Z,72.99
2017-02-03T14:34:27.006Z,72.99
2017-02-03T14:35:37.360Z,72.79
2017-02-03T14:36:48.135Z,73.08
2017-02-03T14:37:58.103Z,72.89
2017-02-03T14:39:08.057Z,73.18
2017-02-03T14:40:18.430Z,73.27
2017-02-03T14:41:28.867Z,73.18
2017-02-03T14:42:39.445Z,73.18
2017-02-03T14:43:49.800Z,73.18
2017-02-03T14:45:00.545Z,73.08
2017-02-03T14:46:10.513Z,72.99
2017-02-03T14:47:20.872Z,72.99
2017-02-03T14:48:30.843Z,72.79
2017-02-03T14:49:41.612Z,73.08
2017-02-03T14:50:51.587Z,72.89
2017-02-03T14:52:02.350Z,72.6
2017-02-03T14:53:12.735Z,72.7
2017-02-03T14:54:23.093Z,72.7
2017-02-03T14:55:32.665Z,72.51
2017-02-03T14:56:43.414Z,72.7
2017-02-03T14:57:53.372Z,72.99
2017-02-03T14:59:04.126Z,73.55
2017-02-03T15:00:14.079Z,73.36
2017-02-03T15:01:24.443Z,73.42
2017-02-03T15:02:34.791Z,73.42
2017-02-03T15:03:44.385Z,73.8
2017-02-03T15:04:54.732Z,73.71
2017-02-03T15:06:05.476Z,73.52
2017-02-03T15:07:15.433Z,73.52
2017-02-03T15:08:26.173Z,73.71
2017-02-03T15:09:36.926Z,73.52
2017-02-03T15:10:47.673Z,73.42
2017-02-03T15:11:58.424Z,73.42
2017-02-03T15:13:09.181Z,73.52
2017-02-03T15:14:19.532Z,73.52
2017-02-03T15:15:29.505Z,73.52
2017-02-03T15:16:40.261Z,73.52
2017-02-03T15:17:51.017Z,73.42
2017-02-03T15:19:00.981Z,73.9
2017-02-03T15:20:10.944Z,73.38
2017-02-03T15:21:21.321Z,73.61
2017-02-03T15:22:31.935Z,73.86
2017-02-03T15:23:42.290Z,73.57
2017-02-03T15:24:52.272Z,73.96
2017-02-03T15:26:02.229Z,73.57
2017-02-03T15:27:12.661Z,73.57
2017-02-03T15:28:22.628Z,73.96
2017-02-03T15:29:32.582Z,73.86
2017-02-03T15:30:43.331Z,73.96
2017-02-03T15:31:52.908Z,73.86
2017-02-03T15:33:03.661Z,73.86
2017-02-03T15:34:14.028Z,73.86
2017-02-03T15:35:24.383Z,73.86
2017-02-03T15:36:34.344Z,74.05
2017-02-03T15:37:45.095Z,73.76
2017-02-03T15:38:55.434Z,73.86
2017-02-03T15:40:05.805Z,73.86
2017-02-03T15:41:15.745Z,73.86